MET'MAP v2.0
soon released !

Expected late october,
this new version will be
more efficient, smarter,
and hosted on a brand new
server x3 powerfull...
...and still free !


Not compatible ?
Try the mobile version !

LOG IN : | Subscribe | Disclaimer | Who is Orbifly ? |
ICAO code :
Legend : VFR Marginal VFR IFR Intensive IFR Very Intensive IFR
Visi :
Ceiling :
>= 8 km
>= 3000ft
5 to 8 km
1000 to 3000 ft
1500m to 5 km
500 to 1000 ft
800 to 1500m
200 to 500 ft
< 800m
< 200 ft

METAR - ETNT Wittmundhaven AB - 05 Jun 2020 05:57 UTC - Data Source NOAA   


- Airport Elevation : 26 ft
- No reported NOTAMs.


ETNT - Wittmundhaven AB

Latest METAR recorded : 2015/08/11 07:29 ETNT 110729Z 27004KT 6000 BKN007 19/16 Q1017 GRN WHT TEMPO GRN
TAF TAF ETNT
Valid from the 05 at 02:00 until the 05 at 11:00 UTC


050130Z 0502/0511 22008KT 9999 NSW SCT025 BKN040
TEMPO 0502/0507 23015KT 4000 SHRA BKN014TCU
BECMG 0507/0509 18012G22KT 9999 NSW SCT030 BKN050
PROB30 0510/0511 18015G25KT 3000 SHRA BKN012CB BY ETGL

Source NOAA


MET'MAP, your aeronautical weather chart ! - Copyright ORBIFLY December 2007

Programming & Development : Alexandra Zaïnal
Co-Developer : Marc-Olivier Méhu
Technical & hardware support : Manuel Goepfert
Concept & Financing : Baudouin d'Aumeries